createdAt,value
2023-05-12T00:00:01.588Z,25.15
2023-05-12T00:01:04.464Z,14.67
2023-05-12T00:02:07.443Z,14.67
2023-05-12T00:03:10.565Z,26.40
2023-05-12T00:04:13.426Z,43.86
2023-05-12T00:05:16.080Z,17.89
2023-05-12T00:06:18.731Z,16.64
2023-05-12T00:07:21.301Z,19.38
2023-05-12T00:08:23.976Z,13.76
2023-05-12T00:09:26.638Z,13.27
2023-05-12T00:10:29.318Z,16.98
2023-05-12T00:11:31.977Z,13.58
2023-05-12T00:12:34.852Z,14.80
2023-05-12T00:13:37.550Z,13.65
2023-05-12T00:14:40.299Z,11.48
2023-05-12T00:15:42.964Z,15.95
2023-05-12T00:16:45.683Z,10.37
2023-05-12T00:17:48.330Z,14.53
2023-05-12T00:18:51.017Z,15.93
2023-05-12T00:19:53.655Z,15.07
2023-05-12T00:20:56.214Z,13.36
2023-05-12T00:21:58.879Z,12.28
2023-05-12T00:23:01.548Z,13.07
2023-05-12T00:24:04.227Z,12.20
2023-05-12T00:25:07.127Z,9.48
2023-05-12T00:26:09.772Z,9.40
2023-05-12T00:27:12.544Z,9.05
2023-05-12T00:28:15.221Z,13.23
2023-05-12T00:29:17.771Z,11.24
2023-05-12T00:30:20.643Z,13.46
2023-05-12T00:31:23.763Z,14.52
2023-05-12T00:32:26.944Z,10.46
2023-05-12T00:33:29.815Z,13.71
2023-05-12T00:34:32.773Z,19.22
2023-05-12T00:35:35.640Z,8.08
2023-05-12T00:36:38.524Z,11.01
2023-05-12T00:37:41.702Z,10.19
2023-05-12T00:38:44.469Z,11.22
2023-05-12T00:39:47.458Z,13.26
2023-05-12T00:40:50.530Z,12.97
2023-05-12T00:41:53.505Z,11.54
2023-05-12T00:42:56.890Z,11.07
2023-05-12T00:43:59.784Z,11.94
2023-05-12T00:45:02.642Z,9.93
2023-05-12T00:46:05.605Z,12.72
2023-05-12T00:47:08.592Z,10.14
2023-05-12T00:48:11.625Z,8.50
2023-05-12T00:49:14.443Z,10.95
2023-05-12T00:50:17.433Z,13.31
2023-05-12T00:51:20.505Z,12.31
2023-05-12T00:52:23.485Z,20.35
2023-05-12T00:53:32.582Z,11.88
2023-05-12T00:54:31.397Z,31.78
2023-05-12T00:55:34.252Z,10.99
2023-05-12T00:56:37.331Z,10.91
2023-05-12T00:57:40.310Z,6.43
2023-05-12T00:58:43.508Z,8.53
2023-05-12T00:59:46.262Z,8.26
2023-05-12T01:00:49.213Z,10.91
2023-05-12T01:01:51.819Z,9.55
2023-05-12T01:02:54.487Z,6.56
2023-05-12T01:03:57.150Z,8.17
2023-05-12T01:04:59.815Z,7.40
2023-05-12T01:06:02.392Z,11.34
2023-05-12T01:07:05.052Z,9.68
2023-05-12T01:08:07.521Z,10.78
2023-05-12T01:09:10.198Z,8.22
2023-05-12T01:10:12.968Z,9.82
2023-05-12T01:11:15.839Z,7.53
2023-05-12T01:12:18.614Z,10.48
2023-05-12T01:13:21.488Z,8.92
2023-05-12T01:14:24.477Z,8.55
2023-05-12T01:15:27.334Z,7.08
2023-05-12T01:16:33.398Z,8.96
2023-05-12T01:17:36.382Z,8.68
2023-05-12T01:18:39.398Z,8.46
2023-05-12T01:19:42.622Z,6.74
2023-05-12T01:20:45.401Z,7.78
2023-05-12T01:21:48.269Z,10.25
2023-05-12T01:22:51.046Z,5.65
2023-05-12T01:23:53.919Z,7.11
2023-05-12T01:24:56.902Z,7.55
2023-05-12T01:25:59.772Z,7.18
2023-05-12T01:27:02.641Z,13.76
2023-05-12T01:28:05.640Z,8.11
2023-05-12T01:29:08.599Z,7.13
2023-05-12T01:30:11.791Z,8.88
2023-05-12T01:31:14.780Z,6.50
2023-05-12T01:32:17.531Z,7.25
2023-05-12T01:33:20.412Z,5.78
2023-05-12T01:34:23.283Z,7.64
2023-05-12T01:35:26.357Z,7.62
2023-05-12T01:36:29.248Z,6.28
2023-05-12T01:37:32.016Z,5.49
2023-05-12T01:38:34.778Z,4.88
2023-05-12T01:39:37.459Z,4.29
2023-05-12T01:40:40.632Z,5.39
2023-05-12T01:41:43.192Z,6.54
2023-05-12T01:42:45.861Z,6.04
2023-05-12T01:43:48.530Z,4.48
2023-05-12T01:44:51.203Z,9.44
2023-05-12T01:45:54.177Z,14.01
2023-05-12T01:46:56.865Z,8.38
2023-05-12T01:47:59.696Z,5.30
2023-05-12T01:49:02.492Z,5.94
2023-05-12T01:50:05.167Z,8.48
2023-05-12T01:51:07.843Z,5.21
2023-05-12T01:52:10.498Z,5.35
2023-05-12T01:53:13.284Z,7.99
2023-05-12T01:54:16.213Z,9.66
2023-05-12T01:55:19.142Z,9.87
2023-05-12T01:56:22.113Z,7.32
2023-05-12T01:57:24.985Z,7.94
2023-05-12T01:58:27.848Z,8.18
2023-05-12T01:59:30.725Z,6.80
2023-05-12T02:00:33.501Z,7.45
2023-05-12T02:01:36.293Z,7.05
2023-05-12T02:02:40.287Z,6.36
2023-05-12T02:03:43.253Z,6.36
2023-05-12T02:04:45.921Z,5.40
2023-05-12T02:05:48.592Z,7.36
2023-05-12T02:06:51.254Z,5.18
2023-05-12T02:07:53.826Z,7.13
2023-05-12T02:08:56.496Z,7.68
2023-05-12T02:09:59.165Z,6.10
2023-05-12T02:11:02.044Z,6.09
2023-05-12T02:12:05.048Z,7.96
2023-05-12T02:13:07.586Z,8.31
2023-05-12T02:14:10.357Z,9.81
2023-05-12T02:15:13.139Z,5.82
2023-05-12T02:16:16.023Z,7.19
2023-05-12T02:17:18.981Z,6.30
2023-05-12T02:18:21.832Z,6.12
2023-05-12T02:19:24.742Z,6.22
2023-05-12T02:20:27.599Z,5.53
2023-05-12T02:21:30.482Z,6.74
2023-05-12T02:22:33.553Z,5.76
2023-05-12T02:23:36.337Z,7.19
2023-05-12T02:24:39.205Z,5.85
2023-05-12T02:25:42.090Z,5.74
2023-05-12T02:26:44.958Z,7.02
2023-05-12T02:27:48.042Z,6.44
2023-05-12T02:28:50.911Z,5.67
2023-05-12T02:29:53.682Z,5.65
2023-05-12T02:30:56.562Z,4.71
2023-05-12T02:31:59.155Z,7.02
2023-05-12T02:33:01.849Z,10.07
2023-05-12T02:34:06.584Z,11.71
2023-05-12T02:35:09.087Z,9.60
2023-05-12T02:36:11.956Z,9.48
2023-05-12T02:37:14.829Z,8.06
2023-05-12T02:38:17.810Z,10.35
2023-05-12T02:39:20.791Z,9.22
2023-05-12T02:40:23.654Z,9.14
2023-05-12T02:41:26.535Z,10.14
2023-05-12T02:42:29.100Z,9.05
2023-05-12T02:43:32.177Z,8.36
2023-05-12T02:44:35.054Z,8.76
2023-05-12T02:45:37.939Z,10.28
2023-05-12T02:46:40.802Z,10.90
2023-05-12T02:47:43.599Z,10.74
2023-05-12T02:48:46.656Z,11.20
2023-05-12T02:49:49.635Z,11.08
2023-05-12T02:50:52.412Z,10.99
2023-05-12T02:51:55.495Z,10.42
2023-05-12T02:52:58.360Z,12.33
2023-05-12T02:54:01.336Z,10.58
2023-05-12T02:55:04.207Z,13.92
2023-05-12T02:56:07.090Z,12.31
2023-05-12T02:57:10.169Z,12.85
2023-05-12T02:58:13.053Z,10.95
2023-05-12T02:59:16.030Z,12.32
2023-05-12T03:00:18.964Z,13.53
2023-05-12T03:01:21.700Z,14.66
2023-05-12T03:02:24.360Z,16.36
2023-05-12T03:03:27.141Z,12.78
2023-05-12T03:04:30.300Z,14.71
2023-05-12T03:05:32.858Z,12.58
2023-05-12T03:06:35.537Z,13.16
2023-05-12T03:07:38.199Z,15.18
2023-05-12T03:08:40.866Z,10.08
2023-05-12T03:09:43.650Z,12.27
2023-05-12T03:10:46.308Z,12.72
2023-05-12T03:11:49.186Z,13.25
2023-05-12T03:12:51.954Z,11.56
2023-05-12T03:13:54.727Z,12.32
2023-05-12T03:14:57.805Z,12.90
2023-05-12T03:16:00.680Z,12.43
2023-05-12T03:17:03.596Z,15.24
2023-05-12T03:18:06.580Z,12.76
2023-05-12T03:19:09.559Z,15.39
2023-05-12T03:20:12.490Z,15.25
2023-05-12T03:21:18.436Z,16.30
2023-05-12T03:22:21.409Z,15.09
2023-05-12T03:23:24.385Z,15.90
2023-05-12T03:24:27.264Z,14.58
2023-05-12T03:25:30.239Z,16.19
2023-05-12T03:26:33.026Z,13.42
2023-05-12T03:27:38.967Z,13.58
2023-05-12T03:28:41.837Z,15.16
2023-05-12T03:29:44.709Z,12.87
2023-05-12T03:30:47.886Z,12.15
2023-05-12T03:31:50.791Z,11.94
2023-05-12T03:32:53.716Z,14.84
2023-05-12T03:33:56.719Z,14.47
2023-05-12T03:34:59.284Z,14.66
2023-05-12T03:36:01.959Z,12.55
2023-05-12T03:37:04.629Z,12.47
2023-05-12T03:38:07.309Z,11.66
2023-05-12T03:39:09.862Z,16.90
2023-05-12T03:40:12.434Z,16.13
2023-05-12T03:41:14.999Z,14.38
2023-05-12T03:42:17.675Z,14.85
2023-05-12T03:43:20.337Z,14.35
2023-05-12T03:44:22.914Z,10.57
2023-05-12T03:45:25.627Z,12.59
2023-05-12T03:46:28.826Z,12.03
2023-05-12T03:47:31.933Z,13.41
2023-05-12T03:48:34.808Z,12.72
2023-05-12T03:49:37.478Z,15.61
2023-05-12T03:50:40.148Z,12.17
2023-05-12T03:51:43.042Z,15.09
2023-05-12T03:52:46.103Z,11.82
2023-05-12T03:53:48.783Z,15.05
2023-05-12T03:54:51.445Z,14.10
2023-05-12T03:55:54.116Z,11.05
2023-05-12T03:56:56.886Z,11.88
2023-05-12T03:57:59.556Z,15.50
2023-05-12T03:59:02.130Z,14.52
2023-05-12T04:00:04.795Z,14.31
2023-05-12T04:01:07.359Z,13.36
2023-05-12T04:02:10.163Z,13.63
2023-05-12T04:03:12.782Z,13.12
2023-05-12T04:04:15.673Z,12.22
2023-05-12T04:05:18.566Z,12.56
2023-05-12T04:06:21.325Z,10.14
2023-05-12T04:07:24.197Z,12.43
2023-05-12T04:08:26.973Z,13.27
2023-05-12T04:09:29.855Z,16.48
2023-05-12T04:10:32.729Z,12.89
2023-05-12T04:11:35.597Z,14.18
2023-05-12T04:12:38.684Z,13.57
2023-05-12T04:13:41.964Z,11.19
2023-05-12T04:14:44.739Z,15.02
2023-05-12T04:15:47.513Z,12.78
2023-05-12T04:16:50.312Z,14.25
2023-05-12T04:17:53.427Z,13.25
2023-05-12T04:18:56.362Z,13.07
2023-05-12T04:19:59.106Z,11.82
2023-05-12T04:21:02.083Z,10.86
2023-05-12T04:22:04.749Z,10.73
2023-05-12T04:23:07.835Z,12.23
2023-05-12T04:24:10.806Z,9.76
2023-05-12T04:25:13.782Z,12.36
2023-05-12T04:26:16.657Z,12.23
2023-05-12T04:27:19.553Z,11.54
2023-05-12T04:28:22.634Z,15.73
2023-05-12T04:29:25.383Z,10.12
2023-05-12T04:30:28.259Z,16.18
2023-05-12T04:31:31.159Z,12.53
2023-05-12T04:32:34.050Z,13.43
2023-05-12T04:33:37.306Z,15.31
2023-05-12T04:34:40.083Z,17.16
2023-05-12T04:35:42.861Z,17.44
2023-05-12T04:36:45.721Z,14.23
2023-05-12T04:37:48.695Z,11.08
2023-05-12T04:38:51.694Z,13.39
2023-05-12T04:39:54.765Z,14.40
2023-05-12T04:40:57.624Z,13.52
2023-05-12T04:42:00.595Z,12.61
2023-05-12T04:43:03.477Z,12.22
2023-05-12T04:44:06.355Z,9.36
2023-05-12T04:45:09.156Z,11.72
2023-05-12T04:46:12.150Z,10.05
2023-05-12T04:47:14.971Z,10.53
2023-05-12T04:48:17.749Z,10.22
2023-05-12T04:49:20.520Z,11.21
2023-05-12T04:50:23.298Z,11.28
2023-05-12T04:51:26.704Z,8.21
2023-05-12T04:52:29.654Z,11.46
2023-05-12T04:53:32.530Z,10.78
2023-05-12T04:54:35.733Z,12.05
2023-05-12T04:55:38.485Z,10.88
2023-05-12T04:56:41.157Z,11.71
2023-05-12T04:57:43.833Z,10.85
2023-05-12T04:58:46.395Z,13.24
2023-05-12T04:59:51.196Z,12.57
2023-05-12T05:00:53.977Z,14.29
2023-05-12T05:01:56.652Z,16.51
2023-05-12T05:02:59.375Z,13.58
2023-05-12T05:04:01.999Z,13.51
2023-05-12T05:05:04.765Z,14.22
2023-05-12T05:06:07.433Z,13.36
2023-05-12T05:07:10.114Z,13.99
2023-05-12T05:08:12.788Z,14.60
2023-05-12T05:09:15.556Z,19.01
2023-05-12T05:10:18.128Z,16.33
2023-05-12T05:11:20.787Z,13.03
2023-05-12T05:12:23.354Z,15.91
2023-05-12T05:13:26.245Z,16.48
2023-05-12T05:14:28.908Z,15.06
2023-05-12T05:15:31.910Z,16.43
2023-05-12T05:16:34.757Z,13.03
2023-05-12T05:17:37.527Z,12.74
2023-05-12T05:18:40.452Z,9.71
2023-05-12T05:19:54.810Z,14.28
2023-05-12T05:20:56.068Z,12.90
2023-05-12T05:21:52.094Z,12.76
2023-05-12T05:22:54.860Z,13.41
2023-05-12T05:23:57.737Z,13.62
2023-05-12T05:25:00.518Z,13.03
2023-05-12T05:26:03.689Z,11.35
2023-05-12T05:27:06.460Z,10.29
2023-05-12T05:28:09.438Z,10.75
2023-05-12T05:29:12.117Z,13.62
2023-05-12T05:30:15.092Z,14.30
2023-05-12T05:31:17.985Z,14.37
2023-05-12T05:32:20.873Z,14.96
2023-05-12T05:33:23.917Z,13.88
2023-05-12T05:34:26.900Z,11.12
2023-05-12T05:35:29.765Z,11.66
2023-05-12T05:36:32.949Z,17.74
2023-05-12T05:37:36.233Z,12.42
2023-05-12T05:38:39.345Z,10.78
2023-05-12T05:39:42.187Z,11.72
2023-05-12T05:40:52.779Z,12.64
2023-05-12T05:41:49.677Z,13.00
2023-05-12T05:42:52.651Z,12.92
2023-05-12T05:43:55.521Z,12.08
2023-05-12T05:44:58.416Z,14.55
2023-05-12T05:46:01.419Z,13.52
2023-05-12T05:47:04.562Z,12.29
2023-05-12T05:48:07.567Z,13.85
2023-05-12T05:49:10.415Z,11.08
2023-05-12T05:50:13.300Z,12.97
2023-05-12T05:51:16.274Z,12.00
2023-05-12T05:52:19.258Z,12.53
2023-05-12T05:53:22.852Z,14.92
2023-05-12T05:54:25.814Z,11.71
2023-05-12T05:55:28.589Z,12.48
2023-05-12T05:56:31.556Z,14.68
2023-05-12T05:57:34.741Z,17.53
2023-05-12T05:58:40.684Z,13.25
2023-05-12T05:59:43.569Z,19.82
2023-05-12T06:00:46.230Z,14.59
2023-05-12T06:01:49.101Z,15.79
2023-05-12T06:02:52.234Z,14.72
2023-05-12T06:03:54.987Z,16.90
2023-05-12T06:04:57.653Z,15.47
2023-05-12T06:06:00.320Z,13.42
2023-05-12T06:07:02.866Z,13.68
2023-05-12T06:08:05.532Z,13.66
2023-05-12T06:09:08.200Z,13.71
2023-05-12T06:10:10.772Z,12.04
2023-05-12T06:11:13.755Z,13.42
2023-05-12T06:12:17.133Z,10.58
2023-05-12T06:13:20.112Z,11.20
2023-05-12T06:14:23.005Z,13.83
2023-05-12T06:15:25.862Z,11.73
2023-05-12T06:16:28.637Z,11.78
2023-05-12T06:17:32.849Z,12.57
2023-05-12T06:18:35.933Z,12.23
2023-05-12T06:19:38.809Z,11.28
2023-05-12T06:20:41.686Z,11.90
2023-05-12T06:21:44.434Z,14.50
2023-05-12T06:22:47.345Z,12.53
2023-05-12T06:23:50.189Z,12.41
2023-05-12T06:24:53.066Z,13.58
2023-05-12T06:25:56.046Z,12.24
2023-05-12T06:26:58.910Z,12.78
2023-05-12T06:28:01.804Z,13.70
2023-05-12T06:29:05.085Z,11.96
2023-05-12T06:30:08.047Z,13.49
2023-05-12T06:31:11.238Z,13.04
2023-05-12T06:32:13.952Z,16.07
2023-05-12T06:33:16.579Z,14.46
2023-05-12T06:34:19.652Z,11.48
2023-05-12T06:35:22.468Z,11.96
2023-05-12T06:36:25.036Z,14.98
2023-05-12T06:37:27.667Z,21.85
2023-05-12T06:38:30.337Z,14.64
2023-05-12T06:39:33.413Z,16.64
2023-05-12T06:40:35.865Z,12.32
2023-05-12T06:41:38.347Z,12.92
2023-05-12T06:42:41.012Z,12.61
2023-05-12T06:43:43.582Z,14.47
2023-05-12T06:44:46.458Z,14.73
2023-05-12T06:45:49.170Z,14.13
2023-05-12T06:46:52.002Z,12.88
2023-05-12T06:47:54.918Z,12.58
2023-05-12T06:48:58.781Z,9.38
2023-05-12T06:50:01.657Z,10.83
2023-05-12T06:51:04.422Z,13.30
2023-05-12T06:52:07.325Z,12.20
2023-05-12T06:53:10.169Z,13.69
2023-05-12T06:54:14.070Z,11.85
2023-05-12T06:55:17.178Z,12.39
2023-05-12T06:56:20.024Z,12.99
2023-05-12T06:57:23.117Z,11.62
2023-05-12T06:58:25.676Z,8.56
2023-05-12T06:59:28.337Z,12.99
2023-05-12T07:00:31.126Z,14.99
2023-05-12T07:01:33.836Z,15.78
2023-05-12T07:02:36.468Z,13.69
2023-05-12T07:03:39.249Z,14.66
2023-05-12T07:04:41.893Z,13.67
2023-05-12T07:05:44.733Z,14.03
2023-05-12T07:06:47.437Z,13.55
2023-05-12T07:07:50.112Z,13.05
2023-05-12T07:08:52.792Z,9.58
2023-05-12T07:09:55.345Z,11.42
2023-05-12T07:10:58.122Z,12.33
2023-05-12T07:12:00.789Z,12.27
2023-05-12T07:13:03.355Z,12.33
2023-05-12T07:14:05.919Z,13.68
2023-05-12T07:15:08.571Z,11.08
2023-05-12T07:16:11.290Z,14.17
2023-05-12T07:17:14.039Z,13.93
2023-05-12T07:18:16.700Z,9.46
2023-05-12T07:19:19.383Z,10.36
2023-05-12T07:20:22.253Z,10.92
2023-05-12T07:21:25.349Z,12.84
2023-05-12T07:22:28.099Z,14.99
2023-05-12T07:23:31.091Z,12.67
2023-05-12T07:24:33.847Z,9.76
2023-05-12T07:25:36.927Z,9.92
2023-05-12T07:26:40.009Z,13.86
2023-05-12T07:27:42.876Z,16.22
2023-05-12T07:28:45.766Z,10.25
2023-05-12T07:29:48.625Z,11.24
2023-05-12T07:30:51.632Z,13.67
2023-05-12T07:31:54.706Z,10.95
2023-05-12T07:33:00.434Z,10.63
2023-05-12T07:34:03.205Z,14.37
2023-05-12T07:35:05.973Z,11.67
2023-05-12T07:36:08.848Z,9.86
2023-05-12T07:37:11.844Z,11.86
2023-05-12T07:38:14.706Z,11.17
2023-05-12T07:39:17.576Z,10.75
2023-05-12T07:40:20.457Z,10.04
2023-05-12T07:41:23.432Z,10.87
2023-05-12T07:42:26.506Z,12.28
2023-05-12T07:43:29.379Z,11.58
2023-05-12T07:44:32.372Z,11.64
2023-05-12T07:45:35.237Z,14.56
2023-05-12T07:46:38.133Z,14.65
2023-05-12T07:47:41.001Z,10.73
2023-05-12T07:48:43.857Z,11.36
2023-05-12T07:49:46.537Z,10.71
2023-05-12T07:50:49.412Z,12.18
2023-05-12T07:51:52.083Z,12.53
2023-05-12T07:52:56.384Z,9.76
2023-05-12T07:53:58.958Z,12.99
2023-05-12T07:55:01.721Z,13.91
2023-05-12T07:56:04.390Z,12.76
2023-05-12T07:57:07.167Z,10.83
2023-05-12T07:58:09.854Z,13.40
2023-05-12T07:59:12.401Z,11.70
2023-05-12T08:00:15.065Z,11.18
2023-05-12T08:01:17.738Z,11.68
2023-05-12T08:02:20.333Z,13.39
2023-05-12T08:03:23.051Z,11.63
2023-05-12T08:04:25.730Z,15.49
2023-05-12T08:05:28.350Z,14.82
2023-05-12T08:06:30.984Z,15.62
2023-05-12T08:07:33.661Z,9.96
2023-05-12T08:08:36.320Z,14.23
2023-05-12T08:09:39.203Z,15.95
2023-05-12T08:10:42.129Z,14.68
2023-05-12T08:11:47.050Z,14.06
2023-05-12T08:12:49.497Z,16.48
2023-05-12T08:13:52.335Z,16.76
2023-05-12T08:14:55.308Z,10.78
2023-05-12T08:15:58.203Z,11.47
2023-05-12T08:17:01.195Z,13.73
2023-05-12T08:18:04.160Z,15.60
2023-05-12T08:19:07.411Z,15.68
2023-05-12T08:20:10.305Z,12.52
2023-05-12T08:21:13.176Z,14.00
2023-05-12T08:22:15.851Z,16.28
2023-05-12T08:23:18.725Z,14.27
2023-05-12T08:24:21.806Z,13.05
2023-05-12T08:25:24.680Z,14.12
2023-05-12T08:26:27.545Z,17.17
2023-05-12T08:27:30.426Z,12.23
2023-05-12T08:28:33.397Z,15.96
2023-05-12T08:29:36.502Z,13.89
2023-05-12T08:30:39.256Z,15.05
2023-05-12T08:31:42.231Z,13.98
2023-05-12T08:32:45.121Z,21.70
2023-05-12T08:33:51.837Z,18.55
2023-05-12T08:34:52.688Z,13.97
2023-05-12T08:35:55.472Z,13.58
2023-05-12T08:36:58.334Z,14.53
2023-05-12T08:38:01.223Z,14.48
2023-05-12T08:39:04.127Z,12.33
2023-05-12T08:40:07.065Z,13.58
2023-05-12T08:41:09.837Z,14.63
2023-05-12T08:42:15.905Z,14.65
2023-05-12T08:43:18.571Z,15.86
2023-05-12T08:44:21.431Z,20.23
2023-05-12T08:45:26.221Z,15.13
2023-05-12T08:46:29.102Z,16.97
2023-05-12T08:47:32.025Z,15.00
2023-05-12T08:48:34.880Z,16.97
2023-05-12T08:49:37.748Z,20.24
2023-05-12T08:50:40.940Z,15.35
2023-05-12T08:51:43.499Z,16.73
2023-05-12T08:52:48.943Z,17.58
2023-05-12T08:53:51.605Z,18.04
2023-05-12T08:54:56.600Z,21.69
2023-05-12T08:57:09.513Z,17.65
2023-05-12T08:58:08.020Z,19.48
2023-05-12T08:59:10.903Z,15.85
2023-05-12T09:00:16.196Z,15.61
2023-05-12T09:01:18.884Z,20.77
2023-05-12T09:02:21.670Z,14.38
2023-05-12T09:03:24.285Z,13.95
2023-05-12T09:04:26.960Z,16.22
2023-05-12T09:05:29.569Z,19.49
2023-05-12T09:06:32.666Z,17.60
2023-05-12T09:07:35.630Z,15.50
2023-05-12T09:08:38.510Z,15.76
2023-05-12T09:09:41.379Z,18.66
2023-05-12T09:10:44.257Z,17.44
2023-05-12T09:11:47.453Z,20.53
2023-05-12T09:12:50.113Z,17.36
2023-05-12T09:13:53.092Z,16.18
2023-05-12T09:14:56.069Z,15.40
2023-05-12T09:15:59.029Z,18.64
2023-05-12T09:17:02.020Z,18.21
2023-05-12T09:18:04.914Z,15.51
2023-05-12T09:19:07.968Z,12.88
2023-05-12T09:20:20.568Z,14.72
2023-05-12T09:21:15.353Z,15.11
2023-05-12T09:22:18.246Z,15.49
2023-05-12T09:23:20.801Z,16.41
2023-05-12T09:24:23.594Z,17.45
2023-05-12T09:25:26.364Z,15.66
2023-05-12T09:26:29.216Z,15.48
2023-05-12T09:27:32.810Z,17.32
2023-05-12T09:28:35.695Z,14.21
2023-05-12T09:29:45.401Z,16.84
2023-05-12T09:30:42.905Z,19.81
2023-05-12T09:31:46.123Z,11.82
2023-05-12T09:32:52.876Z,14.81
2023-05-12T09:33:55.506Z,17.42
2023-05-12T09:34:58.468Z,13.77
2023-05-12T09:36:01.249Z,12.72
2023-05-12T09:37:04.117Z,12.43
2023-05-12T09:38:07.313Z,13.20
2023-05-12T09:39:10.170Z,15.12
2023-05-12T09:40:12.947Z,13.99
2023-05-12T09:41:15.816Z,13.85
2023-05-12T09:42:18.696Z,14.98
2023-05-12T09:43:21.722Z,14.45
2023-05-12T09:44:24.645Z,14.72
2023-05-12T09:45:27.521Z,17.50
2023-05-12T09:46:30.332Z,14.21
2023-05-12T09:47:33.184Z,16.26
2023-05-12T09:48:36.261Z,14.16
2023-05-12T09:49:39.033Z,14.95
2023-05-12T09:50:47.225Z,15.35
2023-05-12T09:51:46.011Z,12.73
2023-05-12T09:52:49.894Z,12.44
2023-05-12T09:53:52.770Z,14.63
2023-05-12T09:54:55.341Z,13.98
2023-05-12T09:55:58.001Z,14.52
2023-05-12T09:57:00.693Z,14.61
2023-05-12T09:58:03.344Z,15.79
2023-05-12T09:59:06.223Z,13.69
2023-05-12T10:00:16.615Z,14.07
2023-05-12T10:01:22.536Z,18.95
2023-05-12T10:02:17.147Z,16.24
2023-05-12T10:03:19.770Z,12.58
2023-05-12T10:04:22.651Z,13.27
2023-05-12T10:05:25.308Z,16.42
2023-05-12T10:06:27.980Z,16.80
2023-05-12T10:07:30.750Z,17.14
2023-05-12T10:08:33.428Z,13.84
2023-05-12T10:09:36.198Z,13.33
2023-05-12T10:10:38.865Z,17.08
2023-05-12T10:11:41.543Z,15.22
2023-05-12T10:12:44.410Z,13.82
2023-05-12T10:13:47.406Z,15.46
2023-05-12T10:14:50.477Z,13.62
2023-05-12T10:15:53.235Z,14.46
2023-05-12T10:16:56.035Z,12.07
2023-05-12T10:17:58.935Z,14.82
2023-05-12T10:19:01.799Z,16.57
2023-05-12T10:20:04.757Z,13.85
2023-05-12T10:21:07.506Z,16.31
2023-05-12T10:22:10.280Z,15.31
2023-05-12T10:23:13.186Z,13.32
2023-05-12T10:24:16.055Z,15.11
2023-05-12T10:25:19.621Z,14.39
2023-05-12T10:26:22.610Z,12.86
2023-05-12T10:27:25.587Z,13.03
2023-05-12T10:28:28.456Z,14.70
2023-05-12T10:29:31.228Z,14.05
2023-05-12T10:30:34.200Z,14.86
2023-05-12T10:31:36.909Z,14.82
2023-05-12T10:32:39.664Z,16.36
2023-05-12T10:33:42.625Z,18.28
2023-05-12T10:34:45.504Z,15.40
2023-05-12T10:35:49.560Z,15.68
2023-05-12T10:36:52.777Z,14.90
2023-05-12T10:37:55.353Z,13.42
2023-05-12T10:38:58.327Z,14.96
2023-05-12T10:40:01.221Z,14.58
2023-05-12T10:41:04.182Z,17.09
2023-05-12T10:42:07.197Z,16.85
2023-05-12T10:43:09.924Z,14.85
2023-05-12T10:44:12.897Z,14.56
2023-05-12T10:45:15.788Z,16.58
2023-05-12T10:46:18.677Z,16.55
2023-05-12T10:47:21.857Z,18.42
2023-05-12T10:48:24.706Z,15.26
2023-05-12T10:49:27.576Z,15.17
2023-05-12T10:50:30.564Z,19.13
2023-05-12T10:51:33.324Z,16.69
2023-05-12T10:52:36.305Z,18.59
2023-05-12T10:53:49.291Z,17.82
2023-05-12T10:54:43.488Z,19.66
2023-05-12T10:55:46.375Z,16.62
2023-05-12T10:56:50.089Z,17.10
2023-05-12T10:57:53.257Z,15.47
2023-05-12T10:58:56.380Z,16.35
2023-05-12T10:59:59.756Z,14.02
2023-05-12T11:01:03.186Z,13.91
2023-05-12T11:02:07.877Z,13.87
2023-05-12T11:03:11.492Z,15.99
2023-05-12T11:04:14.637Z,17.51
2023-05-12T11:05:17.912Z,18.53
2023-05-12T11:06:21.248Z,18.71
2023-05-12T11:07:24.690Z,14.62
2023-05-12T11:08:28.451Z,15.47
2023-05-12T11:09:31.502Z,16.02
2023-05-12T11:10:35.403Z,20.02
2023-05-12T11:11:38.657Z,17.34
2023-05-12T11:12:41.681Z,19.00
2023-05-12T11:13:44.468Z,16.48
2023-05-12T11:14:47.243Z,17.29
2023-05-12T11:15:50.027Z,17.73
2023-05-12T11:16:52.980Z,18.19
2023-05-12T11:17:55.967Z,17.12
2023-05-12T11:18:58.941Z,21.35
2023-05-12T11:20:02.060Z,15.65
2023-05-12T11:21:04.880Z,15.49
2023-05-12T11:22:07.770Z,15.48
2023-05-12T11:23:13.597Z,16.01
2023-05-12T11:24:20.138Z,17.10
2023-05-12T11:25:23.350Z,14.93
2023-05-12T11:26:26.428Z,14.49
2023-05-12T11:27:31.838Z,19.09
2023-05-12T11:28:34.738Z,18.67
2023-05-12T11:29:37.508Z,17.30
2023-05-12T11:30:40.376Z,14.72
2023-05-12T11:31:43.286Z,18.12
2023-05-12T11:32:45.890Z,15.71
2023-05-12T11:33:51.834Z,17.47
2023-05-12T11:34:52.811Z,15.99
2023-05-12T11:35:55.678Z,23.07
2023-05-12T11:36:58.549Z,19.62
2023-05-12T11:38:01.427Z,12.85
2023-05-12T11:39:04.405Z,15.91
2023-05-12T11:40:07.181Z,15.65
2023-05-12T11:41:09.946Z,13.53
2023-05-12T11:42:14.282Z,14.16
2023-05-12T11:43:17.240Z,13.46
2023-05-12T11:44:20.110Z,14.78
2023-05-12T11:45:23.171Z,13.11
2023-05-12T11:46:26.016Z,15.97
2023-05-12T11:47:28.661Z,17.37
2023-05-12T11:48:31.512Z,21.18
2023-05-12T11:49:34.484Z,38.46
2023-05-12T11:50:37.257Z,30.44
2023-05-12T11:51:40.130Z,23.85
2023-05-12T11:52:43.000Z,20.14
2023-05-12T11:53:45.877Z,21.67
2023-05-12T11:54:48.980Z,24.37
2023-05-12T11:55:51.632Z,24.22
2023-05-12T11:56:54.203Z,19.40
2023-05-12T11:57:56.871Z,19.91
2023-05-12T11:58:59.539Z,16.57
2023-05-12T12:00:02.319Z,19.21
2023-05-12T12:01:04.881Z,21.87
2023-05-12T12:02:07.471Z,16.00
2023-05-12T12:03:12.981Z,17.77
2023-05-12T12:04:15.874Z,19.49
2023-05-12T12:05:19.039Z,20.39
2023-05-12T12:06:21.720Z,21.91
2023-05-12T12:07:24.272Z,30.38
2023-05-12T12:08:28.074Z,20.26
2023-05-12T12:09:31.050Z,22.84
2023-05-12T12:10:39.229Z,22.83
2023-05-12T12:11:41.808Z,21.44
2023-05-12T12:12:44.485Z,23.11
2023-05-12T12:13:47.046Z,20.38
2023-05-12T12:14:50.342Z,19.77
2023-05-12T12:15:53.298Z,18.63
2023-05-12T12:16:56.087Z,17.59
2023-05-12T12:17:58.997Z,16.72
2023-05-12T12:19:01.674Z,18.64
2023-05-12T12:20:04.504Z,16.22
2023-05-12T12:21:07.485Z,19.28
2023-05-12T12:22:10.375Z,18.85
2023-05-12T12:23:13.232Z,20.19
2023-05-12T12:24:16.002Z,18.51
2023-05-12T12:25:19.158Z,21.55
2023-05-12T12:26:22.291Z,21.35
2023-05-12T12:27:25.241Z,19.56
2023-05-12T12:28:28.128Z,19.52
2023-05-12T12:29:30.909Z,34.43
2023-05-12T12:30:33.763Z,47.20
2023-05-12T12:31:36.966Z,34.13
2023-05-12T12:32:39.852Z,24.02
2023-05-12T12:33:42.809Z,21.25
2023-05-12T12:34:45.574Z,18.63
2023-05-12T12:35:48.343Z,23.56
2023-05-12T12:36:51.212Z,26.93
2023-05-12T12:37:54.090Z,19.62
2023-05-12T12:38:56.998Z,20.38
2023-05-12T12:39:59.741Z,21.78
2023-05-12T12:41:02.521Z,21.45
2023-05-12T12:42:05.178Z,19.22
2023-05-12T12:43:09.780Z,18.45
2023-05-12T12:44:12.671Z,20.85
2023-05-12T12:45:15.770Z,20.31
2023-05-12T12:46:19.809Z,19.95
2023-05-12T12:47:24.185Z,23.88
2023-05-12T12:48:27.248Z,22.44
2023-05-12T12:49:30.424Z,22.25
2023-05-12T12:50:33.402Z,22.96
2023-05-12T12:51:45.131Z,20.88
2023-05-12T12:52:40.498Z,22.71
2023-05-12T12:53:43.053Z,22.58
2023-05-12T12:54:45.817Z,23.01
2023-05-12T12:55:48.288Z,24.38
2023-05-12T12:56:50.862Z,21.82
2023-05-12T12:57:53.647Z,26.90
2023-05-12T12:58:56.312Z,25.32
2023-05-12T12:59:58.980Z,26.30
2023-05-12T13:01:01.805Z,24.49
2023-05-12T13:02:04.434Z,24.95
2023-05-12T13:03:07.310Z,24.85
2023-05-12T13:04:10.069Z,22.82
2023-05-12T13:05:12.741Z,25.86
2023-05-12T13:06:15.292Z,27.43
2023-05-12T13:07:19.098Z,25.53
2023-05-12T13:08:21.661Z,23.52
2023-05-12T13:09:24.360Z,23.94
2023-05-12T13:10:27.024Z,20.69
2023-05-12T13:11:29.559Z,28.89
2023-05-12T13:12:32.240Z,28.23
2023-05-12T13:13:35.128Z,27.78
2023-05-12T13:14:37.884Z,26.85
2023-05-12T13:15:40.564Z,22.91
2023-05-12T13:16:43.309Z,23.61
2023-05-12T13:17:45.928Z,24.31
2023-05-12T13:18:48.749Z,27.85
2023-05-12T13:19:51.324Z,23.75
2023-05-12T13:20:55.228Z,26.35
2023-05-12T13:21:57.809Z,24.43
2023-05-12T13:23:00.473Z,24.31
2023-05-12T13:24:03.148Z,25.06
2023-05-12T13:25:06.621Z,29.62
2023-05-12T13:26:09.298Z,25.38
2023-05-12T13:27:11.861Z,24.39
2023-05-12T13:28:14.552Z,27.74
2023-05-12T13:29:17.305Z,25.92
2023-05-12T13:30:19.989Z,22.68
2023-05-12T13:31:22.794Z,26.27
2023-05-12T13:32:25.550Z,23.48
2023-05-12T13:33:28.088Z,25.41
2023-05-12T13:34:30.772Z,25.79
2023-05-12T13:35:33.634Z,27.70